LFOP METAR and TAF | Updated Today

LFOP METAR

Rouen Airport

Observation time: 18 min. ago

LFOP 291030Z AUTO 35006KT 290V050 9999 SCT029 BKN047 BKN062 13/05 Q1018 NOSIG

Need help? Read our tutorial on how to read METARs or read the parsed version below.

Rouen Airport (LFOP) METAR

  • Weather conditions on Sun, 29 May 2022 10:30:00 +0000 (18 min. ago):
  • Present conditions: Dry
  • Clouds: Scattered at 884 meters; broken sky at 1433 meters; broken sky at 1890 meters
  • Visibility: Greater than 10 km
  • Wind: 350 degrees at 6 knots
  • Temperature: 13 celsius
  • Dew point: 5 celsius
  • Pressure: 1018 millibars
  • Remarks: None


Useful to know...

LFOP TAF

Rouen Airport

TAF LFOP 290500Z 2906/3006 34007KT 9999 SCT030 TEMPO 2906/2910 3000 SHRA BKN030TCU
Observation time: 5:48 hr. ago
Need help? Read our tutorial on how to read TAFs or read the parsed version below.

Parsed version of TAF for Rouen Airport (LFOP)

  • From 29 May at 06:00 UTC, to day 30 of the month at 06:00 UTC
  • Clouds: Scattered at 914 meters
  • Visibility: Greater than 10 km
  • Wind: 340 degrees at 7
  • Expected to arise temporarily, from 29 May at 06:00 UTC, to day 29 of the month at 10:00 UTC
  • Clouds: Broken sky at 914 meters, towering cumulus
  • Visibility: 3000 meters
  • Other: Showers of rain